sensor_id;sensor_type;location;lat;lon;timestamp;P1;durP1;ratioP1;P2;durP2;ratioP2
25129;SDS011;13308;50.860;13.664;2022-07-22T04:43:05;13.48;;;12.13;;
25129;SDS011;13308;50.860;13.664;2022-07-22T04:45:31;13.30;;;11.40;;
25129;SDS011;13308;50.860;13.664;2022-07-22T04:47:56;12.23;;;11.02;;
25129;SDS011;13308;50.860;13.664;2022-07-22T04:50:21;12.88;;;10.93;;
25129;SDS011;13308;50.860;13.664;2022-07-22T04:52:54;11.30;;;10.13;;
25129;SDS011;13308;50.860;13.664;2022-07-22T04:55:19;14.40;;;11.02;;
25129;SDS011;13308;50.860;13.664;2022-07-22T04:57:45;12.38;;;10.93;;
25129;SDS011;13308;50.860;13.664;2022-07-22T05:00:10;12.18;;;10.82;;
25129;SDS011;13308;50.860;13.664;2022-07-22T05:02:45;13.38;;;11.60;;
25129;SDS011;13308;50.860;13.664;2022-07-22T05:05:11;11.00;;;10.00;;
25129;SDS011;13308;50.860;13.664;2022-07-22T05:07:36;12.23;;;11.02;;
25129;SDS011;13308;50.860;13.664;2022-07-22T05:10:02;11.57;;;10.35;;
25129;SDS011;13308;50.860;13.664;2022-07-22T05:12:28;13.65;;;11.20;;
25129;SDS011;13308;50.860;13.664;2022-07-22T05:14:53;11.18;;;10.23;;
25129;SDS011;13308;50.860;13.664;2022-07-22T05:17:19;12.18;;;10.82;;
25129;SDS011;13308;50.860;13.664;2022-07-22T05:19:57;12.02;;;10.55;;
25129;SDS011;13308;50.860;13.664;2022-07-22T05:22:22;12.55;;;10.35;;
25129;SDS011;13308;50.860;13.664;2022-07-22T05:24:49;13.48;;;10.77;;
25129;SDS011;13308;50.860;13.664;2022-07-22T05:27:14;11.15;;;10.25;;
25129;SDS011;13308;50.860;13.664;2022-07-22T05:29:40;11.45;;;10.25;;
25129;SDS011;13308;50.860;13.664;2022-07-22T05:32:06;11.63;;;10.55;;
25129;SDS011;13308;50.860;13.664;2022-07-22T05:34:31;13.38;;;10.73;;
25129;SDS011;13308;50.860;13.664;2022-07-22T05:36:57;10.80;;;9.85;;
25129;SDS011;13308;50.860;13.664;2022-07-22T05:39:22;10.77;;;9.70;;
25129;SDS011;13308;50.860;13.664;2022-07-22T05:41:47;10.98;;;9.98;;
25129;SDS011;13308;50.860;13.664;2022-07-22T05:44:14;11.23;;;9.85;;
25129;SDS011;13308;50.860;13.664;2022-07-22T05:46:39;11.32;;;9.98;;
25129;SDS011;13308;50.860;13.664;2022-07-22T05:49:05;11.82;;;10.63;;
25129;SDS011;13308;50.860;13.664;2022-07-22T05:51:40;12.40;;;11.20;;
25129;SDS011;13308;50.860;13.664;2022-07-22T05:54:05;12.38;;;11.07;;
25129;SDS011;13308;50.860;13.664;2022-07-22T05:56:31;12.30;;;11.00;;
25129;SDS011;13308;50.860;13.664;2022-07-22T05:58:56;11.45;;;10.25;;
25129;SDS011;13308;50.860;13.664;2022-07-22T06:01:22;11.75;;;10.65;;
25129;SDS011;13308;50.860;13.664;2022-07-22T06:03:47;12.05;;;10.80;;
25129;SDS011;13308;50.860;13.664;2022-07-22T06:06:14;13.10;;;11.02;;
25129;SDS011;13308;50.860;13.664;2022-07-22T06:08:40;11.63;;;10.43;;
25129;SDS011;13308;50.860;13.664;2022-07-22T06:11:06;11.50;;;10.35;;
25129;SDS011;13308;50.860;13.664;2022-07-22T06:13:32;13.48;;;11.13;;
25129;SDS011;13308;50.860;13.664;2022-07-22T06:15:58;14.25;;;10.88;;
25129;SDS011;13308;50.860;13.664;2022-07-22T06:18:24;13.00;;;11.55;;
25129;SDS011;13308;50.860;13.664;2022-07-22T06:20:49;13.60;;;11.32;;
25129;SDS011;13308;50.860;13.664;2022-07-22T06:23:15;10.55;;;9.50;;
25129;SDS011;13308;50.860;13.664;2022-07-22T06:25:40;10.95;;;9.95;;
25129;SDS011;13308;50.860;13.664;2022-07-22T06:28:08;11.48;;;10.30;;
25129;SDS011;13308;50.860;13.664;2022-07-22T06:30:33;11.85;;;10.73;;
25129;SDS011;13308;50.860;13.664;2022-07-22T06:32:59;11.98;;;10.88;;
25129;SDS011;13308;50.860;13.664;2022-07-22T06:35:25;11.85;;;10.65;;
25129;SDS011;13308;50.860;13.664;2022-07-22T06:37:50;11.55;;;10.35;;
25129;SDS011;13308;50.860;13.664;2022-07-22T06:40:17;10.75;;;9.77;;
25129;SDS011;13308;50.860;13.664;2022-07-22T06:42:57;14.32;;;10.32;;
25129;SDS011;13308;50.860;13.664;2022-07-22T06:45:34;10.07;;;9.10;;
25129;SDS011;13308;50.860;13.664;2022-07-22T06:48:05;10.63;;;9.60;;
25129;SDS011;13308;50.860;13.664;2022-07-22T06:50:31;9.50;;;8.68;;
25129;SDS011;13308;50.860;13.664;2022-07-22T06:52:58;12.52;;;9.30;;
25129;SDS011;13308;50.860;13.664;2022-07-22T06:55:23;10.27;;;8.95;;
25129;SDS011;13308;50.860;13.664;2022-07-22T06:57:59;9.38;;;8.48;;
25129;SDS011;13308;50.860;13.664;2022-07-22T07:00:26;9.82;;;9.02;;
25129;SDS011;13308;50.860;13.664;2022-07-22T07:03:30;10.18;;;9.10;;
25129;SDS011;13308;50.860;13.664;2022-07-22T07:05:59;8.70;;;7.90;;
25129;SDS011;13308;50.860;13.664;2022-07-22T07:08:28;8.40;;;7.65;;
25129;SDS011;13308;50.860;13.664;2022-07-22T07:10:53;8.85;;;8.02;;
25129;SDS011;13308;50.860;13.664;2022-07-22T07:13:18;9.65;;;8.20;;
25129;SDS011;13308;50.860;13.664;2022-07-22T07:15:46;8.63;;;7.93;;
25129;SDS011;13308;50.860;13.664;2022-07-22T07:18:13;8.77;;;8.07;;
25129;SDS011;13308;50.860;13.664;2022-07-22T07:20:38;8.48;;;7.63;;
25129;SDS011;13308;50.860;13.664;2022-07-22T07:23:06;8.00;;;7.28;;
25129;SDS011;13308;50.860;13.664;2022-07-22T07:25:39;9.05;;;8.25;;
25129;SDS011;13308;50.860;13.664;2022-07-22T07:28:05;9.23;;;8.35;;
25129;SDS011;13308;50.860;13.664;2022-07-22T07:30:49;9.23;;;7.30;;
25129;SDS011;13308;50.860;13.664;2022-07-22T07:33:15;8.63;;;7.82;;
25129;SDS011;13308;50.860;13.664;2022-07-22T07:35:41;8.18;;;7.47;;
25129;SDS011;13308;50.860;13.664;2022-07-22T07:38:06;8.45;;;7.85;;
25129;SDS011;13308;50.860;13.664;2022-07-22T07:40:32;8.45;;;7.65;;
25129;SDS011;13308;50.860;13.664;2022-07-22T07:42:58;12.13;;;7.93;;
25129;SDS011;13308;50.860;13.664;2022-07-22T07:45:24;8.32;;;7.55;;
25129;SDS011;13308;50.860;13.664;2022-07-22T07:47:49;8.10;;;7.45;;
25129;SDS011;13308;50.860;13.664;2022-07-22T07:50:15;8.52;;;7.63;;
25129;SDS011;13308;50.860;13.664;2022-07-22T07:52:41;8.43;;;7.72;;
25129;SDS011;13308;50.860;13.664;2022-07-22T07:55:09;10.30;;;8.10;;
25129;SDS011;13308;50.860;13.664;2022-07-22T07:57:37;9.10;;;8.30;;
25129;SDS011;13308;50.860;13.664;2022-07-22T08:00:09;8.88;;;8.18;;
25129;SDS011;13308;50.860;13.664;2022-07-22T08:02:38;8.65;;;7.90;;
25129;SDS011;13308;50.860;13.664;2022-07-22T08:05:05;8.75;;;7.90;;
25129;SDS011;13308;50.860;13.664;2022-07-22T08:07:30;8.80;;;8.10;;
25129;SDS011;13308;50.860;13.664;2022-07-22T08:09:59;9.00;;;8.13;;
25129;SDS011;13308;50.860;13.664;2022-07-22T08:12:44;9.25;;;8.40;;
25129;SDS011;13308;50.860;13.664;2022-07-22T08:15:18;9.43;;;8.52;;
25129;SDS011;13308;50.860;13.664;2022-07-22T08:17:47;9.20;;;8.32;;
25129;SDS011;13308;50.860;13.664;2022-07-22T08:20:12;9.30;;;8.43;;
25129;SDS011;13308;50.860;13.664;2022-07-22T08:22:38;9.50;;;8.63;;
25129;SDS011;13308;50.860;13.664;2022-07-22T08:25:04;8.30;;;7.50;;
25129;SDS011;13308;50.860;13.664;2022-07-22T08:27:30;8.57;;;7.88;;
25129;SDS011;13308;50.860;13.664;2022-07-22T08:29:55;8.88;;;8.18;;
25129;SDS011;13308;50.860;13.664;2022-07-22T08:32:21;9.25;;;8.30;;
25129;SDS011;13308;50.860;13.664;2022-07-22T08:34:47;9.60;;;8.70;;
25129;SDS011;13308;50.860;13.664;2022-07-22T08:37:12;9.82;;;8.88;;
25129;SDS011;13308;50.860;13.664;2022-07-22T08:39:38;12.65;;;8.23;;
25129;SDS011;13308;50.860;13.664;2022-07-22T08:42:04;9.88;;;8.93;;
25129;SDS011;13308;50.860;13.664;2022-07-22T08:44:30;9.05;;;8.18;;
25129;SDS011;13308;50.860;13.664;2022-07-22T08:46:58;10.18;;;9.18;;
25129;SDS011;13308;50.860;13.664;2022-07-22T08:49:51;12.40;;;9.00;;
25129;SDS011;13308;50.860;13.664;2022-07-22T08:52:28;9.82;;;8.80;;
25129;SDS011;13308;50.860;13.664;2022-07-22T08:54:54;10.15;;;8.50;;
25129;SDS011;13308;50.860;13.664;2022-07-22T08:57:19;9.93;;;9.02;;
25129;SDS011;13308;50.860;13.664;2022-07-22T08:59:48;10.15;;;8.98;;
25129;SDS011;13308;50.860;13.664;2022-07-22T09:02:22;10.95;;;8.68;;
25129;SDS011;13308;50.860;13.664;2022-07-22T09:04:58;9.80;;;9.00;;
25129;SDS011;13308;50.860;13.664;2022-07-22T09:07:26;11.05;;;9.45;;
25129;SDS011;13308;50.860;13.664;2022-07-22T09:10:08;10.57;;;9.48;;
25129;SDS011;13308;50.860;13.664;2022-07-22T09:12:59;10.07;;;8.95;;
25129;SDS011;13308;50.860;13.664;2022-07-22T09:15:47;10.93;;;9.82;;
25129;SDS011;13308;50.860;13.664;2022-07-22T09:18:57;11.88;;;9.57;;
25129;SDS011;13308;50.860;13.664;2022-07-22T09:21:42;10.40;;;9.32;;
25129;SDS011;13308;50.860;13.664;2022-07-22T09:26:54;10.35;;;9.45;;
25129;SDS011;13308;50.860;13.664;2022-07-22T09:29:29;9.30;;;8.45;;
25129;SDS011;13308;50.860;13.664;2022-07-22T09:32:13;9.75;;;8.82;;
25129;SDS011;13308;50.860;13.664;2022-07-22T09:34:51;10.80;;;9.90;;
25129;SDS011;13308;50.860;13.664;2022-07-22T09:37:27;9.55;;;8.65;;
25129;SDS011;13308;50.860;13.664;2022-07-22T09:39:52;10.38;;;9.45;;
25129;SDS011;13308;50.860;13.664;2022-07-22T09:42:19;9.90;;;8.93;;
25129;SDS011;13308;50.860;13.664;2022-07-22T09:44:45;10.90;;;9.77;;
25129;SDS011;13308;50.860;13.664;2022-07-22T09:47:28;11.40;;;10.27;;
25129;SDS011;13308;50.860;13.664;2022-07-22T09:53:15;9.52;;;8.73;;
25129;SDS011;13308;50.860;13.664;2022-07-22T09:55:47;11.23;;;9.70;;
25129;SDS011;13308;50.860;13.664;2022-07-22T09:58:14;11.43;;;10.05;;
25129;SDS011;13308;50.860;13.664;2022-07-22T10:00:40;10.75;;;9.70;;
25129;SDS011;13308;50.860;13.664;2022-07-22T10:03:51;10.60;;;9.70;;
25129;SDS011;13308;50.860;13.664;2022-07-22T10:06:01;11.88;;;9.90;;
25129;SDS011;13308;50.860;13.664;2022-07-22T10:08:28;10.68;;;9.52;;
25129;SDS011;13308;50.860;13.664;2022-07-22T10:11:03;10.63;;;9.68;;
25129;SDS011;13308;50.860;13.664;2022-07-22T10:13:30;9.68;;;8.88;;
25129;SDS011;13308;50.860;13.664;2022-07-22T10:15:56;11.13;;;10.13;;
25129;SDS011;13308;50.860;13.664;2022-07-22T10:18:23;9.90;;;9.05;;
25129;SDS011;13308;50.860;13.664;2022-07-22T10:21:02;11.13;;;9.27;;
25129;SDS011;13308;50.860;13.664;2022-07-22T10:23:34;14.48;;;9.65;;
25129;SDS011;13308;50.860;13.664;2022-07-22T10:26:02;10.77;;;9.68;;
25129;SDS011;13308;50.860;13.664;2022-07-22T10:28:30;11.00;;;9.88;;
25129;SDS011;13308;50.860;13.664;2022-07-22T10:33:41;10.32;;;9.38;;
25129;SDS011;13308;50.860;13.664;2022-07-22T10:36:06;10.15;;;9.27;;
25129;SDS011;13308;50.860;13.664;2022-07-22T10:38:33;11.02;;;9.75;;
25129;SDS011;13308;50.860;13.664;2022-07-22T10:41:03;10.93;;;9.35;;
25129;SDS011;13308;50.860;13.664;2022-07-22T10:43:31;13.43;;;9.57;;
25129;SDS011;13308;50.860;13.664;2022-07-22T10:46:11;10.60;;;9.60;;
25129;SDS011;13308;50.860;13.664;2022-07-22T10:51:18;16.57;;;14.90;;
25129;SDS011;13308;50.860;13.664;2022-07-22T10:53:53;10.95;;;9.93;;
25129;SDS011;13308;50.860;13.664;2022-07-22T10:59:15;14.30;;;10.25;;
25129;SDS011;13308;50.860;13.664;2022-07-22T11:01:48;10.82;;;9.65;;
25129;SDS011;13308;50.860;13.664;2022-07-22T11:04:18;10.45;;;9.40;;
25129;SDS011;13308;50.860;13.664;2022-07-22T11:06:47;11.30;;;10.35;;
25129;SDS011;13308;50.860;13.664;2022-07-22T11:09:14;10.43;;;9.57;;
25129;SDS011;13308;50.860;13.664;2022-07-22T11:11:49;12.93;;;9.65;;
25129;SDS011;13308;50.860;13.664;2022-07-22T11:14:30;11.90;;;10.60;;
25129;SDS011;13308;50.860;13.664;2022-07-22T11:19:25;11.13;;;10.07;;
25129;SDS011;13308;50.860;13.664;2022-07-22T11:21:53;11.40;;;10.27;;
25129;SDS011;13308;50.860;13.664;2022-07-22T11:24:21;11.70;;;10.05;;
25129;SDS011;13308;50.860;13.664;2022-07-22T11:26:48;11.40;;;9.55;;
25129;SDS011;13308;50.860;13.664;2022-07-22T11:32:47;12.30;;;9.70;;
25129;SDS011;13308;50.860;13.664;2022-07-22T11:35:13;13.30;;;9.85;;
25129;SDS011;13308;50.860;13.664;2022-07-22T11:37:39;11.50;;;10.40;;
25129;SDS011;13308;50.860;13.664;2022-07-22T11:40:05;12.10;;;9.50;;
25129;SDS011;13308;50.860;13.664;2022-07-22T11:42:32;11.48;;;10.30;;
25129;SDS011;13308;50.860;13.664;2022-07-22T11:44:58;10.50;;;9.45;;
25129;SDS011;13308;50.860;13.664;2022-07-22T11:47:23;10.52;;;9.52;;
25129;SDS011;13308;50.860;13.664;2022-07-22T11:49:49;12.93;;;9.45;;
25129;SDS011;13308;50.860;13.664;2022-07-22T11:52:14;11.05;;;9.95;;
25129;SDS011;13308;50.860;13.664;2022-07-22T11:54:40;13.63;;;9.32;;
25129;SDS011;13308;50.860;13.664;2022-07-22T11:57:06;11.00;;;10.10;;
25129;SDS011;13308;50.860;13.664;2022-07-22T11:59:32;10.68;;;9.23;;
25129;SDS011;13308;50.860;13.664;2022-07-22T12:01:59;12.50;;;9.40;;
25129;SDS011;13308;50.860;13.664;2022-07-22T12:04:25;12.60;;;9.70;;
25129;SDS011;13308;50.860;13.664;2022-07-22T12:06:52;10.88;;;9.88;;
25129;SDS011;13308;50.860;13.664;2022-07-22T12:09:22;10.75;;;9.65;;
25129;SDS011;13308;50.860;13.664;2022-07-22T12:11:49;10.23;;;9.32;;
25129;SDS011;13308;50.860;13.664;2022-07-22T12:14:16;12.73;;;9.75;;
25129;SDS011;13308;50.860;13.664;2022-07-22T12:16:52;9.82;;;8.93;;
25129;SDS011;13308;50.860;13.664;2022-07-22T12:19:19;10.73;;;9.82;;
25129;SDS011;13308;50.860;13.664;2022-07-22T12:24:36;10.27;;;9.23;;
25129;SDS011;13308;50.860;13.664;2022-07-22T12:27:24;11.70;;;9.73;;
25129;SDS011;13308;50.860;13.664;2022-07-22T12:29:49;9.80;;;8.80;;
25129;SDS011;13308;50.860;13.664;2022-07-22T12:32:26;10.77;;;9.50;;
25129;SDS011;13308;50.860;13.664;2022-07-22T12:34:59;10.57;;;8.63;;
25129;SDS011;13308;50.860;13.664;2022-07-22T12:37:26;9.57;;;8.57;;
25129;SDS011;13308;50.860;13.664;2022-07-22T12:40:06;9.23;;;8.43;;
25129;SDS011;13308;50.860;13.664;2022-07-22T12:42:37;9.20;;;8.43;;
25129;SDS011;13308;50.860;13.664;2022-07-22T12:45:05;9.93;;;9.02;;
25129;SDS011;13308;50.860;13.664;2022-07-22T12:50:20;11.73;;;8.70;;
25129;SDS011;13308;50.860;13.664;2022-07-22T12:52:51;9.35;;;8.50;;
25129;SDS011;13308;50.860;13.664;2022-07-22T12:55:19;17.25;;;15.65;;
25129;SDS011;13308;50.860;13.664;2022-07-22T12:57:45;20.95;;;18.75;;
25129;SDS011;13308;50.860;13.664;2022-07-22T13:00:10;9.98;;;8.82;;
25129;SDS011;13308;50.860;13.664;2022-07-22T13:02:41;9.60;;;8.65;;
25129;SDS011;13308;50.860;13.664;2022-07-22T13:05:06;12.02;;;11.00;;
25129;SDS011;13308;50.860;13.664;2022-07-22T13:07:32;10.25;;;8.55;;
25129;SDS011;13308;50.860;13.664;2022-07-22T13:09:57;11.52;;;10.35;;
25129;SDS011;13308;50.860;13.664;2022-07-22T13:12:23;8.98;;;8.10;;
25129;SDS011;13308;50.860;13.664;2022-07-22T13:14:48;8.65;;;7.85;;
25129;SDS011;13308;50.860;13.664;2022-07-22T13:17:13;7.93;;;7.32;;
25129;SDS011;13308;50.860;13.664;2022-07-22T13:19:40;8.38;;;7.55;;
25129;SDS011;13308;50.860;13.664;2022-07-22T13:22:05;12.02;;;7.38;;
25129;SDS011;13308;50.860;13.664;2022-07-22T13:24:30;7.80;;;7.20;;
25129;SDS011;13308;50.860;13.664;2022-07-22T13:26:56;8.40;;;7.70;;
25129;SDS011;13308;50.860;13.664;2022-07-22T13:29:21;8.43;;;7.57;;
25129;SDS011;13308;50.860;13.664;2022-07-22T13:31:46;8.48;;;7.68;;
25129;SDS011;13308;50.860;13.664;2022-07-22T13:34:14;11.85;;;7.97;;
25129;SDS011;13308;50.860;13.664;2022-07-22T13:36:39;9.32;;;6.90;;
25129;SDS011;13308;50.860;13.664;2022-07-22T13:39:05;8.07;;;7.43;;
25129;SDS011;13308;50.860;13.664;2022-07-22T13:41:30;8.10;;;7.50;;
25129;SDS011;13308;50.860;13.664;2022-07-22T13:43:56;8.65;;;7.75;;
25129;SDS011;13308;50.860;13.664;2022-07-22T13:46:21;11.95;;;7.07;;
25129;SDS011;13308;50.860;13.664;2022-07-22T13:48:46;7.85;;;7.05;;
25129;SDS011;13308;50.860;13.664;2022-07-22T13:51:12;8.43;;;7.72;;
25129;SDS011;13308;50.860;13.664;2022-07-22T13:53:39;8.00;;;7.38;;
25129;SDS011;13308;50.860;13.664;2022-07-22T13:56:05;10.20;;;6.80;;
25129;SDS011;13308;50.860;13.664;2022-07-22T13:58:30;8.77;;;7.20;;
25129;SDS011;13308;50.860;13.664;2022-07-22T14:00:56;7.82;;;7.05;;
25129;SDS011;13308;50.860;13.664;2022-07-22T14:03:21;7.93;;;6.50;;
25129;SDS011;13308;50.860;13.664;2022-07-22T14:05:47;11.50;;;6.93;;
25129;SDS011;13308;50.860;13.664;2022-07-22T14:08:12;7.65;;;7.05;;
25129;SDS011;13308;50.860;13.664;2022-07-22T14:10:37;7.72;;;6.82;;
25129;SDS011;13308;50.860;13.664;2022-07-22T14:13:03;8.02;;;7.25;;
25129;SDS011;13308;50.860;13.664;2022-07-22T14:15:28;7.60;;;7.00;;
25129;SDS011;13308;50.860;13.664;2022-07-22T14:17:53;7.68;;;6.53;;
25129;SDS011;13308;50.860;13.664;2022-07-22T14:20:19;7.35;;;6.85;;
25129;SDS011;13308;50.860;13.664;2022-07-22T14:22:44;9.10;;;6.75;;
25129;SDS011;13308;50.860;13.664;2022-07-22T14:25:09;7.68;;;6.97;;
25129;SDS011;13308;50.860;13.664;2022-07-22T14:27:35;7.47;;;6.78;;
25129;SDS011;13308;50.860;13.664;2022-07-22T14:30:00;6.45;;;5.95;;
25129;SDS011;13308;50.860;13.664;2022-07-22T14:32:25;7.28;;;6.68;;
25129;SDS011;13308;50.860;13.664;2022-07-22T14:34:51;7.38;;;6.78;;
25129;SDS011;13308;50.860;13.664;2022-07-22T14:37:16;7.07;;;6.50;;
25129;SDS011;13308;50.860;13.664;2022-07-22T14:39:41;6.93;;;6.43;;
25129;SDS011;13308;50.860;13.664;2022-07-22T14:42:07;6.63;;;6.13;;
25129;SDS011;13308;50.860;13.664;2022-07-22T14:44:32;6.55;;;6.10;;
25129;SDS011;13308;50.860;13.664;2022-07-22T14:46:57;8.32;;;6.10;;
25129;SDS011;13308;50.860;13.664;2022-07-22T14:49:23;6.72;;;6.10;;
25129;SDS011;13308;50.860;13.664;2022-07-22T14:51:48;6.70;;;5.90;;
25129;SDS011;13308;50.860;13.664;2022-07-22T14:54:13;6.75;;;6.22;;
25129;SDS011;13308;50.860;13.664;2022-07-22T14:56:39;7.43;;;6.47;;
25129;SDS011;13308;50.860;13.664;2022-07-22T14:59:05;6.53;;;6.05;;
25129;SDS011;13308;50.860;13.664;2022-07-22T15:01:31;6.75;;;6.25;;
25129;SDS011;13308;50.860;13.664;2022-07-22T15:03:56;6.97;;;6.38;;
25129;SDS011;13308;50.860;13.664;2022-07-22T15:06:21;6.97;;;6.47;;
25129;SDS011;13308;50.860;13.664;2022-07-22T15:08:47;6.38;;;5.90;;
25129;SDS011;13308;50.860;13.664;2022-07-22T15:11:12;6.25;;;5.85;;
25129;SDS011;13308;50.860;13.664;2022-07-22T15:13:38;6.30;;;5.80;;
25129;SDS011;13308;50.860;13.664;2022-07-22T15:16:03;6.90;;;6.30;;
25129;SDS011;13308;50.860;13.664;2022-07-22T15:18:29;8.10;;;6.10;;
25129;SDS011;13308;50.860;13.664;2022-07-22T15:20:54;6.50;;;5.90;;
25129;SDS011;13308;50.860;13.664;2022-07-22T15:23:21;6.82;;;6.25;;
25129;SDS011;13308;50.860;13.664;2022-07-22T15:25:47;7.32;;;6.70;;
25129;SDS011;13308;50.860;13.664;2022-07-22T15:28:12;9.48;;;6.43;;
25129;SDS011;13308;50.860;13.664;2022-07-22T15:30:38;8.80;;;6.40;;
25129;SDS011;13308;50.860;13.664;2022-07-22T15:33:03;7.95;;;6.32;;
25129;SDS011;13308;50.860;13.664;2022-07-22T15:35:28;7.78;;;6.03;;
25129;SDS011;13308;50.860;13.664;2022-07-22T15:37:54;6.72;;;6.07;;
25129;SDS011;13308;50.860;13.664;2022-07-22T15:40:19;6.32;;;5.88;;
25129;SDS011;13308;50.860;13.664;2022-07-22T15:42:46;6.72;;;6.22;;
25129;SDS011;13308;50.860;13.664;2022-07-22T15:45:11;7.10;;;6.20;;
25129;SDS011;13308;50.860;13.664;2022-07-22T15:47:37;7.50;;;6.47;;
25129;SDS011;13308;50.860;13.664;2022-07-22T15:50:02;6.72;;;6.13;;
25129;SDS011;13308;50.860;13.664;2022-07-22T15:52:28;6.50;;;5.95;;
25129;SDS011;13308;50.860;13.664;2022-07-22T15:54:53;7.18;;;6.57;;
25129;SDS011;13308;50.860;13.664;2022-07-22T15:57:19;6.93;;;6.43;;
25129;SDS011;13308;50.860;13.664;2022-07-22T16:00:04;6.90;;;6.20;;
25129;SDS011;13308;50.860;13.664;2022-07-22T16:02:37;7.22;;;6.63;;
25129;SDS011;13308;50.860;13.664;2022-07-22T16:05:02;7.05;;;6.38;;
25129;SDS011;13308;50.860;13.664;2022-07-22T16:07:28;7.03;;;6.38;;
25129;SDS011;13308;50.860;13.664;2022-07-22T16:09:53;9.50;;;6.78;;
25129;SDS011;13308;50.860;13.664;2022-07-22T16:12:18;6.80;;;6.20;;
25129;SDS011;13308;50.860;13.664;2022-07-22T16:14:43;6.10;;;5.70;;
25129;SDS011;13308;50.860;13.664;2022-07-22T16:17:09;6.82;;;5.15;;
25129;SDS011;13308;50.860;13.664;2022-07-22T16:19:35;4.85;;;4.55;;
25129;SDS011;13308;50.860;13.664;2022-07-22T16:22:00;5.50;;;5.10;;
25129;SDS011;13308;50.860;13.664;2022-07-22T16:24:26;5.20;;;4.70;;
25129;SDS011;13308;50.860;13.664;2022-07-22T16:26:51;5.30;;;4.90;;
25129;SDS011;13308;50.860;13.664;2022-07-22T16:29:16;5.68;;;5.20;;
25129;SDS011;13308;50.860;13.664;2022-07-22T16:31:41;5.32;;;4.93;;
25129;SDS011;13308;50.860;13.664;2022-07-22T16:34:07;7.03;;;4.65;;
25129;SDS011;13308;50.860;13.664;2022-07-22T16:36:32;4.97;;;4.57;;
25129;SDS011;13308;50.860;13.664;2022-07-22T16:38:58;5.45;;;5.05;;
25129;SDS011;13308;50.860;13.664;2022-07-22T16:41:25;4.97;;;4.57;;
25129;SDS011;13308;50.860;13.664;2022-07-22T16:43:50;7.25;;;5.35;;
25129;SDS011;13308;50.860;13.664;2022-07-22T16:46:16;5.32;;;4.93;;
25129;SDS011;13308;50.860;13.664;2022-07-22T16:48:41;6.53;;;4.78;;
25129;SDS011;13308;50.860;13.664;2022-07-22T16:51:06;6.65;;;4.72;;
25129;SDS011;13308;50.860;13.664;2022-07-22T16:53:32;5.45;;;4.95;;
25129;SDS011;13308;50.860;13.664;2022-07-22T16:55:57;5.05;;;4.65;;
25129;SDS011;13308;50.860;13.664;2022-07-22T16:58:22;5.95;;;5.00;;
25129;SDS011;13308;50.860;13.664;2022-07-22T17:00:48;4.47;;;4.05;;
25129;SDS011;13308;50.860;13.664;2022-07-22T17:03:13;4.82;;;4.43;;
25129;SDS011;13308;50.860;13.664;2022-07-22T17:05:38;4.45;;;4.10;;
25129;SDS011;13308;50.860;13.664;2022-07-22T17:08:04;4.60;;;4.23;;
25129;SDS011;13308;50.860;13.664;2022-07-22T17:10:29;6.32;;;4.65;;
25129;SDS011;13308;50.860;13.664;2022-07-22T17:12:54;5.90;;;4.88;;
25129;SDS011;13308;50.860;13.664;2022-07-22T17:15:20;4.95;;;4.63;;
25129;SDS011;13308;50.860;13.664;2022-07-22T17:17:45;7.43;;;4.85;;
25129;SDS011;13308;50.860;13.664;2022-07-22T17:20:11;4.82;;;4.32;;
25129;SDS011;13308;50.860;13.664;2022-07-22T17:22:38;5.28;;;4.78;;
25129;SDS011;13308;50.860;13.664;2022-07-22T17:25:04;4.70;;;4.30;;
25129;SDS011;13308;50.860;13.664;2022-07-22T17:27:30;5.13;;;4.72;;
25129;SDS011;13308;50.860;13.664;2022-07-22T17:29:55;9.70;;;4.68;;
25129;SDS011;13308;50.860;13.664;2022-07-22T17:32:21;5.10;;;4.80;;
